Sarah — WDI4859 — position and weather

sailwx.info

Track history (hours):
 
Tides and Currents Weather Stations Pressure Air Temp Water Temp Dewpoint Dewpoint Depression Visibility Wind Speed Wind Dir Waves Ship Positions

Sarah

Owner: Brusco Tug & Barge, Inc., Longview, WA. More information available from US FCC via Universal Licensing System and Coast Guard Vessel Documentation Center.

Last reported at 2018-Feb-19 07:54 UTC. Time now 2018-Feb-19 11:49 UTC.
Position N 33°44' W 118°17'.

Length 24 m.

Type: Tug. MMSI: 367702770.

Date/timePositionNaut miles runAvg speedWind from/ knotsBaromVisibWave heightAir tempDewpointWater temp
2018-Feb-19 07:54N 33°44' W 118°17'0 0.0
2018-Feb-19 02:47N 33°44' W 118°17'0 1.8
2018-Feb-19 02:30N 33°43' W 118°16'2 3.6
2018-Feb-19 02:01N 33°45' W 118°16'1 1.0
2018-Feb-19 01:30N 33°45' W 118°16'1 2.4
2018-Feb-19 01:00N 33°44' W 118°17'1 1.2
2018-Feb-19 00:30N 33°44' W 118°17'0 0.0
2018-Feb-18 23:59N 33°44' W 118°17'0 0.0
2018-Feb-18 23:30N 33°44' W 118°17'0 0.3
2018-Feb-18 23:01N 33°44' W 118°16'1 2.3
2018-Feb-18 22:30N 33°44' W 118°15'1 1.5
2018-Feb-18 22:00N 33°44' W 118°16'1 1.5
2018-Feb-18 21:30N 33°44' W 118°17'0 0.0
2018-Feb-18 21:00N 33°44' W 118°17'0 0.0
2018-Feb-18 20:31N 33°44' W 118°17'0 0.0
2018-Feb-18 19:59N 33°44' W 118°17'0 0.0
2018-Feb-18 19:30N 33°44' W 118°17'0 0.0
2018-Feb-18 19:00N 33°44' W 118°17'0 0.0
2018-Feb-18 18:30N 33°44' W 118°17'0 0.0
2018-Feb-18 18:00N 33°44' W 118°17'0 0.0
2018-Feb-18 17:30N 33°44' W 118°17'0 0.0
2018-Feb-18 17:00N 33°44' W 118°17'0 0.0
2018-Feb-18 16:30N 33°44' W 118°17'0 0.0
2018-Feb-18 16:00N 33°44' W 118°17'0 0.0
2018-Feb-18 15:31N 33°44' W 118°17'1 2.2
2018-Feb-18 15:00N 33°45' W 118°16'1 2.1
2018-Feb-18 14:30N 33°46' W 118°15'0 0.0
2018-Feb-18 14:00N 33°46' W 118°15'0 0.0
2018-Feb-18 13:31N 33°46' W 118°15'0 0.0
2018-Feb-18 13:00N 33°46' W 118°15'0 0.1
2018-Feb-18 12:30N 33°46' W 118°15'0 0.0
2018-Feb-18 12:01N 33°46' W 118°15'2 0.3
2018-Feb-18 04:04N 33°43' W 118°16'0 5.3
2018-Feb-18 04:00N 33°43' W 118°16'1 1.9
2018-Feb-18 03:31N 33°44' W 118°15'2 3.0
2018-Feb-18 02:59N 33°44' W 118°13'1 1.0
2018-Feb-18 01:58N 33°45' W 118°13'0 0.0
2018-Feb-18 01:30N 33°45' W 118°13'0 0.4
2018-Feb-18 01:00N 33°45' W 118°13'1 3.0
2018-Feb-18 00:31N 33°44' W 118°12'1 1.5
2018-Feb-18 00:00N 33°44' W 118°11'0 0.4
2018-Feb-17 23:30N 33°44' W 118°12'0 0.6
2018-Feb-17 23:00N 33°44' W 118°12'4 7.1
2018-Feb-17 22:31N 33°43' W 118°16'1 1.1
2018-Feb-17 21:59N 33°44' W 118°17'0 0.0
2018-Feb-17 21:30N 33°44' W 118°17'0 0.0
2018-Feb-17 21:00N 33°44' W 118°17'3 5.6
2018-Feb-17 20:30N 33°44' W 118°13'1 1.4
2018-Feb-17 20:00N 33°45' W 118°13'0 0.0
2018-Feb-17 19:30N 33°45' W 118°13'0 0.0
2018-Feb-17 19:00N 33°45' W 118°13'0 0.0
2018-Feb-17 18:31N 33°45' W 118°13'0 0.0
2018-Feb-17 18:00N 33°45' W 118°13'0 0.0
2018-Feb-17 17:31N 33°45' W 118°13'0 0.0
2018-Feb-17 17:00N 33°45' W 118°13'0 0.0
2018-Feb-17 16:31N 33°45' W 118°13'0 0.0
2018-Feb-17 16:01N 33°45' W 118°13'0 0.0
2018-Feb-17 15:30N 33°45' W 118°13'0 0.0
2018-Feb-17 15:00N 33°45' W 118°13'0 0.0
2018-Feb-17 14:30N 33°45' W 118°13'0 0.0
2018-Feb-17 13:56N 33°45' W 118°13'0 0.0
2018-Feb-17 13:31N 33°45' W 118°13'0 0.4
2018-Feb-17 12:59N 33°45' W 118°13'1 2.7
2018-Feb-17 12:30N 33°46' W 118°14'0 0.0
2018-Feb-17 12:00N 33°46' W 118°14'1 1.3
2018-Feb-17 11:30N 33°46' W 118°13'1 1.6
2018-Feb-17 10:58N 33°46' W 118°14'0 0.9
2018-Feb-17 10:30N 33°46' W 118°13'4 6.1
2018-Feb-17 09:55N 33°43' W 118°15'1 0.2
2018-Feb-17 01:50N 33°44' W 118°17'0 0.0
2018-Feb-17 01:30N 33°44' W 118°17'0 0.0
2018-Feb-17 01:00N 33°44' W 118°17'0 0.0
2018-Feb-17 00:30N 33°44' W 118°17'0 0.0
2018-Feb-17 00:00N 33°44' W 118°17'0 0.0
2018-Feb-16 23:31N 33°44' W 118°17'0 0.0
2018-Feb-16 23:00N 33°44' W 118°17'0 0.0
2018-Feb-16 22:30N 33°44' W 118°17'0 0.0
2018-Feb-16 22:00N 33°44' W 118°17'0 0.0
2018-Feb-16 21:30N 33°44' W 118°17'0 0.0
2018-Feb-16 21:00N 33°44' W 118°17'4 7.7
2018-Feb-16 20:30N 33°44' W 118°12'1 1.1
2018-Feb-16 20:01N 33°44' W 118°12'1 1.2
2018-Feb-16 19:28N 33°44' W 118°11'1 1.9
2018-Feb-16 19:00N 33°44' W 118°11'3 5.3
2018-Feb-16 18:30N 33°43' W 118°15'2 3.7
2018-Feb-16 18:00N 33°44' W 118°17'0 0.0
2018-Feb-16 17:30N 33°44' W 118°17'0 0.0
2018-Feb-16 17:00N 33°44' W 118°17'0 0.0
2018-Feb-16 16:30N 33°44' W 118°17'0 0.0
2018-Feb-16 16:00N 33°44' W 118°17'0 0.0
2018-Feb-16 15:30N 33°44' W 118°17'0 0.0
2018-Feb-16 15:00N 33°44' W 118°17'0 0.0
2018-Feb-16 13:35N 33°44' W 118°17'0 0.0
2018-Feb-16 05:23N 33°44' W 118°17'0 0.0
2018-Feb-16 04:48N 33°44' W 118°17'0 0.0
2018-Feb-16 04:28N 33°44' W 118°17'0 0.0
2018-Feb-16 04:00N 33°44' W 118°17'2 4.1
2018-Feb-16 03:30N 33°43' W 118°14'2 3.2
2018-Feb-16 02:49N 33°45' W 118°13'0 0.5
2018-Feb-16 02:30N 33°45' W 118°12'3 6.9
2018-Feb-16 02:01N 33°43' W 118°16'1 1.3
2018-Feb-16 01:30N 33°44' W 118°17'0 0.0
2018-Feb-16 01:00N 33°44' W 118°17'0 0.0
2018-Feb-16 00:31N 33°44' W 118°17'0 0.0
2018-Feb-16 00:00N 33°44' W 118°17'0 0.0
2018-Feb-15 23:30N 33°44' W 118°17'0 0.0
2018-Feb-15 23:00N 33°44' W 118°17'0 0.0
2018-Feb-15 22:30N 33°44' W 118°17'0 0.0
2018-Feb-15 22:01N 33°44' W 118°17'0 0.2
2018-Feb-15 21:30N 33°44' W 118°17'3 5.6
2018-Feb-15 21:00N 33°44' W 118°13'1 1.0
2018-Feb-15 20:30N 33°44' W 118°14'1 2.5
2018-Feb-15 20:00N 33°45' W 118°13'0 0.0
2018-Feb-15 19:30N 33°45' W 118°13'1 1.1
2018-Feb-15 19:01N 33°45' W 118°12'0 0.5
2018-Feb-15 18:31N 33°45' W 118°13'1 2.9
2018-Feb-15 18:00N 33°43' W 118°13'3 6.5
2018-Feb-15 17:30N 33°44' W 118°17'0 0.0
2018-Feb-15 17:00N 33°44' W 118°17'0 0.0
2018-Feb-15 16:30N 33°44' W 118°17'0 0.0
2018-Feb-15 16:00N 33°44' W 118°17'0 0.0
2018-Feb-15 15:31N 33°44' W 118°17'0 0.0
2018-Feb-15 15:00N 33°44' W 118°17'0 0.0
2018-Feb-15 14:30N 33°44' W 118°17'0 0.0
2018-Feb-15 13:04N 33°44' W 118°17'0 3.8
2018-Feb-15 12:57N 33°43' W 118°16'3 7.4
2018-Feb-15 12:31N 33°44' W 118°12'0 0.5
2018-Feb-15 12:00N 33°44' W 118°12'0 0.8
2018-Feb-15 11:30N 33°44' W 118°12'1 2.5
2018-Feb-15 11:00N 33°44' W 118°11'3 6.7
2018-Feb-15 10:30N 33°43' W 118°15'2 2.8
2018-Feb-15 09:52N 33°44' W 118°17'0 0.0
2018-Feb-15 09:30N 33°44' W 118°17'0 0.0
2018-Feb-15 08:59N 33°44' W 118°17'0 0.0
2018-Feb-15 08:28N 33°44' W 118°17'0 0.0
2018-Feb-15 07:57N 33°44' W 118°17'0 0.0
2018-Feb-15 07:24N 33°44' W 118°17'0 0.0
2018-Feb-15 06:54N 33°44' W 118°17'0 0.0
2018-Feb-15 06:30N 33°44' W 118°17'0 0.0
2018-Feb-15 06:00N 33°44' W 118°17'0 0.0
2018-Feb-15 05:15N 33°44' W 118°17'0 0.0
2018-Feb-15 04:53N 33°44' W 118°17'0 0.0
2018-Feb-15 04:30N 33°44' W 118°17'0 0.0
2018-Feb-15 03:59N 33°44' W 118°17'0 0.0
2018-Feb-15 03:28N 33°44' W 118°17'0 0.0
2018-Feb-15 02:59N 33°44' W 118°17'0 0.7
2018-Feb-15 02:28N 33°43' W 118°17'0 0.6
2018-Feb-15 01:53N 33°43' W 118°16'1 1.7
2018-Feb-15 01:30N 33°44' W 118°17'0 0.0
2018-Feb-15 01:00N 33°44' W 118°17'0 0.0
2018-Feb-15 00:31N 33°44' W 118°17'1 2.6
2018-Feb-15 00:00N 33°43' W 118°15'3 6.6
2018-Feb-14 23:30N 33°45' W 118°12'0 0.6
2018-Feb-14 23:00N 33°44' W 118°12'1 2.8
2018-Feb-14 22:31N 33°44' W 118°11'3 6.1
2018-Feb-14 22:00N 33°43' W 118°15'2 3.6
2018-Feb-14 21:28N 33°44' W 118°17'0 0.0
2018-Feb-14 21:00N 33°44' W 118°17'0 0.0
2018-Feb-14 20:30N 33°44' W 118°17'0 0.0
2018-Feb-14 19:58N 33°44' W 118°17'0 0.0
2018-Feb-14 19:30N 33°44' W 118°17'0 0.0
2018-Feb-14 18:59N 33°44' W 118°17'0 0.0
2018-Feb-14 18:30N 33°44' W 118°17'0 0.0
2018-Feb-14 18:00N 33°44' W 118°17'0 0.0
2018-Feb-14 17:30N 33°44' W 118°17'0 0.0
2018-Feb-14 17:00N 33°44' W 118°17'0 0.0
2018-Feb-14 16:30N 33°44' W 118°17'0 0.0
2018-Feb-14 16:00N 33°44' W 118°17'0 0.0
2018-Feb-14 15:31N 33°44' W 118°17'1 2.2
2018-Feb-14 15:00N 33°45' W 118°16'2 4.8
2018-Feb-14 14:30N 33°46' W 118°14'0 0.6
2018-Feb-14 14:01N 33°46' W 118°13'2 2.7
2018-Feb-14 13:17N 33°44' W 118°13'2 4.8
2018-Feb-14 12:57N 33°44' W 118°11'3 5.7
2018-Feb-14 12:30N 33°43' W 118°14'2 0.3
2018-Feb-14 04:04N 33°44' W 118°17'0 0.0
2018-Feb-14 03:41N 33°44' W 118°17'0 0.0
2018-Feb-14 03:20N 33°44' W 118°17'0 0.0
2018-Feb-14 02:56N 33°44' W 118°17'0 0.0
2018-Feb-14 02:02N 33°44' W 118°17'0 0.1
2018-Feb-14 01:56N 33°44' W 118°17'3 5.9
2018-Feb-14 01:30N 33°43' W 118°14'3 5.7
2018-Feb-14 01:00N 33°46' W 118°13'0 0.4
2018-Feb-14 00:31N 33°46' W 118°13'0 0.0
2018-Feb-14 00:00N 33°46' W 118°13'2 3.9
2018-Feb-13 23:30N 33°46' W 118°15'0 0.7
2018-Feb-13 23:00N 33°46' W 118°16'2 3.7
2018-Feb-13 22:30N 33°44' W 118°16'2 3.2
2018-Feb-13 22:00N 33°43' W 118°15'1 2.1
2018-Feb-13 21:31N 33°43' W 118°16'1 1.2
2018-Feb-13 21:00N 33°44' W 118°17'0 0.0
2018-Feb-13 20:31N 33°44' W 118°17'0 0.0
2018-Feb-13 20:00N 33°44' W 118°17'0 0.0
2018-Feb-13 19:31N 33°44' W 118°17'0 0.0
2018-Feb-13 19:00N 33°44' W 118°17'0 0.0
2018-Feb-13 18:31N 33°44' W 118°17'0 0.0
2018-Feb-13 18:01N 33°44' W 118°17'0 0.0
2018-Feb-13 17:30N 33°44' W 118°17'0 0.0
2018-Feb-13 17:00N 33°44' W 118°17'0 0.0
2018-Feb-13 16:31N 33°44' W 118°17'0 0.0
2018-Feb-13 16:00N 33°44' W 118°17'0 0.0
2018-Feb-13 15:27N 33°44' W 118°17'0 0.0
2018-Feb-13 15:00N 33°44' W 118°17'3 4.6
2018-Feb-13 14:26N 33°44' W 118°13'2 3.9
2018-Feb-13 14:00N 33°45' W 118°13'0 0.8
2018-Feb-13 13:30N 33°46' W 118°13'0 0.1
2018-Feb-13 13:00N 33°46' W 118°13'1 2.0
2018-Feb-13 12:27N 33°44' W 118°13'3 6.6
2018-Feb-13 12:01N 33°43' W 118°16'0 0.1
2018-Feb-13 06:28N 33°44' W 118°17'0 0.0
2018-Feb-13 01:43N 33°44' W 118°17'0 0.0
2018-Feb-13 01:30N 33°44' W 118°17'0 0.0
2018-Feb-13 01:01N 33°44' W 118°17'0 0.0
2018-Feb-13 00:29N 33°44' W 118°17'0 0.0
2018-Feb-13 00:00N 33°44' W 118°17'2 4.0
2018-Feb-12 23:31N 33°46' W 118°16'0 0.2
2018-Feb-12 23:00N 33°46' W 118°16'1 2.9
2018-Feb-12 22:30N 33°44' W 118°17'2 4.5
2018-Feb-12 22:00N 33°43' W 118°15'2 3.1
2018-Feb-12 21:30N 33°44' W 118°16'0 0.6
2018-Feb-12 21:00N 33°44' W 118°17'0 0.0
2018-Feb-12 20:30N 33°44' W 118°17'0 0.0
2018-Feb-12 20:00N 33°44' W 118°17'0 0.2
2018-Feb-12 19:30N 33°44' W 118°16'0 0.0
2018-Feb-12 19:01N 33°44' W 118°16'0 0.2
2018-Feb-12 18:30N 33°44' W 118°17'0 0.0
2018-Feb-12 18:00N 33°44' W 118°17'0 0.0
2018-Feb-12 17:30N 33°44' W 118°17'0 0.0
2018-Feb-12 17:00N 33°44' W 118°17'0 0.0
2018-Feb-12 16:30N 33°44' W 118°17'0 0.0
2018-Feb-12 16:00N 33°44' W 118°17'0 0.0
2018-Feb-12 15:30N 33°44' W 118°17'0 0.0
2018-Feb-12 14:58N 33°44' W 118°17'0 0.0
2018-Feb-12 14:30N 33°44' W 118°17'0 0.0
2018-Feb-12 13:59N 33°44' W 118°17'0 0.0
2018-Feb-12 13:17N 33°44' W 118°17'0 0.0
2018-Feb-12 12:58N 33°44' W 118°17'0 0.0
2018-Feb-12 08:22N 33°44' W 118°17'0 0.0
2018-Feb-12 05:48N 33°44' W 118°17'0 0.0
2018-Feb-12 05:29N 33°44' W 118°17'0 0.0
2018-Feb-12 05:00N 33°44' W 118°17'0 0.0
2018-Feb-12 04:30N 33°44' W 118°17'0 0.0
2018-Feb-12 02:04N 33°44' W 118°17'0 0.0
2018-Feb-12 01:56N 33°44' W 118°17'0 0.0
2018-Feb-12 01:30N 33°44' W 118°17'0 0.0
2018-Feb-12 01:00N 33°44' W 118°17'0 0.0
2018-Feb-12 00:30N 33°44' W 118°17'0 0.0
2018-Feb-12 00:00N 33°44' W 118°17'0 0.0
2018-Feb-11 23:30N 33°44' W 118°17'0 0.0
2018-Feb-11 23:00N 33°44' W 118°17'1 2.3
2018-Feb-11 22:30N 33°44' W 118°15'1 2.6
2018-Feb-11 22:01N 33°43' W 118°15'1 2.6
2018-Feb-11 21:30N 33°44' W 118°16'0 0.7
2018-Feb-11 21:00N 33°44' W 118°17'0 0.0
2018-Feb-11 20:30N 33°44' W 118°17'0 0.0
2018-Feb-11 20:00N 33°44' W 118°17'0 0.0
2018-Feb-11 19:30N 33°44' W 118°17'0 0.0
2018-Feb-11 19:00N 33°44' W 118°17'0 0.0
2018-Feb-11 18:30N 33°44' W 118°17'0 0.0
2018-Feb-11 18:00N 33°44' W 118°17'0 0.0
2018-Feb-11 17:30N 33°44' W 118°17'0 0.0
2018-Feb-11 17:00N 33°44' W 118°17'0 0.0
2018-Feb-11 16:30N 33°44' W 118°17'0 0.0
2018-Feb-11 16:00N 33°44' W 118°17'0 0.0
2018-Feb-11 15:30N 33°44' W 118°17'1 1.1
2018-Feb-11 15:00N 33°43' W 118°16'2 3.6
2018-Feb-11 14:30N 33°45' W 118°16'0 0.4
2018-Feb-11 14:00N 33°45' W 118°16'0 1.0
2018-Feb-11 13:30N 33°45' W 118°16'0 0.1
2018-Feb-11 13:00N 33°45' W 118°16'2 5.0
2018-Feb-11 12:30N 33°43' W 118°15'2 3.1
2018-Feb-11 12:00N 33°43' W 118°16'0 0.8
2018-Feb-11 11:30N 33°44' W 118°17'0 0.0
2018-Feb-11 02:57N 33°44' W 118°17'0 0.0
2018-Feb-11 02:29N 33°44' W 118°17'3 5.5
2018-Feb-11 02:00N 33°44' W 118°13'2 4.0
2018-Feb-11 01:30N 33°46' W 118°13'0 0.9
2018-Feb-11 01:00N 33°46' W 118°14'1 1.6
2018-Feb-11 00:30N 33°46' W 118°13'3 6.6
2018-Feb-11 00:00N 33°43' W 118°15'2 3.1
2018-Feb-10 23:30N 33°44' W 118°17'0 0.0
2018-Feb-10 23:00N 33°44' W 118°17'0 0.0
2018-Feb-10 22:29N 33°44' W 118°17'0 0.0
2018-Feb-10 22:00N 33°44' W 118°17'0 0.0
2018-Feb-10 21:30N 33°44' W 118°17'0 0.0
2018-Feb-10 21:00N 33°44' W 118°17'0 0.0
2018-Feb-10 20:30N 33°44' W 118°17'0 0.0
2018-Feb-10 20:00N 33°44' W 118°17'0 0.0
2018-Feb-10 19:30N 33°44' W 118°17'0 0.0
2018-Feb-10 19:00N 33°44' W 118°17'0 0.0
2018-Feb-10 18:30N 33°44' W 118°17'0 0.0
2018-Feb-10 18:00N 33°44' W 118°17'0 0.0
2018-Feb-10 17:30N 33°44' W 118°17'0 0.0
2018-Feb-10 17:00N 33°44' W 118°17'0 0.0
2018-Feb-10 16:30N 33°44' W 118°17'0 0.0
2018-Feb-10 16:00N 33°44' W 118°17'0 0.0
2018-Feb-10 15:30N 33°44' W 118°17'0 0.0
2018-Feb-10 15:00N 33°44' W 118°17'0 0.0
2018-Feb-10 14:15N 33°44' W 118°17'0 0.0
2018-Feb-10 13:57N 33°44' W 118°17'0 0.2
2018-Feb-10 13:17N 33°44' W 118°16'1 4.3
2018-Feb-10 13:00N 33°45' W 118°16'1 1.3
2018-Feb-10 12:30N 33°46' W 118°17'1 1.7
2018-Feb-10 12:00N 33°45' W 118°16'1 1.2
2018-Feb-10 11:14N 33°44' W 118°17'0 0.0
2018-Feb-10 10:58N 33°44' W 118°17'0 0.0
2018-Feb-10 03:10N 33°44' W 118°17'0 0.0
2018-Feb-10 02:55N 33°44' W 118°17'0 0.0
2018-Feb-10 02:11N 33°44' W 118°17'0 0.0
2018-Feb-10 02:00N 33°44' W 118°17'0 0.0
2018-Feb-10 01:30N 33°44' W 118°17'0 0.0
2018-Feb-10 01:00N 33°44' W 118°17'1 2.0
2018-Feb-10 00:30N 33°45' W 118°16'0 1.0
2018-Feb-10 00:00N 33°45' W 118°16'1 1.1
2018-Feb-09 23:30N 33°46' W 118°16'0 0.2
2018-Feb-09 23:00N 33°46' W 118°16'0 0.2
2018-Feb-09 22:46N 33°46' W 118°16'1 3.6
2018-Feb-09 22:31N 33°45' W 118°16'1 1.2
2018-Feb-09 21:30N 33°44' W 118°17'0 0.0
2018-Feb-09 20:00N 33°44' W 118°17'0 0.0
2018-Feb-09 18:00N 33°44' W 118°17'0 0.0
2018-Feb-09 17:30N 33°44' W 118°17'1 0.2
2018-Feb-09 12:31N 33°44' W 118°15'  
Track history (hours):
 
Tides and Currents Weather Stations Pressure Air Temp Water Temp Dewpoint Dewpoint Depression Visibility Wind Speed Wind Dir Waves Ship Positions

Sarah

Owner: Brusco Tug & Barge, Inc., Longview, WA. More information available from US FCC via Universal Licensing System and Coast Guard Vessel Documentation Center.

Last reported at 2018-Feb-19 07:54 UTC. Time now 2018-Feb-19 11:49 UTC.
Position N 33°44' W 118°17'.

Length 24 m.

Type: Tug. MMSI: 367702770.

Date/timePositionNaut miles runAvg speedWind from/ knotsBaromVisibWave heightAir tempDewpointWater temp
2018-Feb-19 07:54N 33°44' W 118°17'0 0.0
2018-Feb-19 02:47N 33°44' W 118°17'0 1.8
2018-Feb-19 02:30N 33°43' W 118°16'2 3.6
2018-Feb-19 02:01N 33°45' W 118°16'1 1.0
2018-Feb-19 01:30N 33°45' W 118°16'1 2.4
2018-Feb-19 01:00N 33°44' W 118°17'1 1.2
2018-Feb-19 00:30N 33°44' W 118°17'0 0.0
2018-Feb-18 23:59N 33°44' W 118°17'0 0.0
2018-Feb-18 23:30N 33°44' W 118°17'0 0.3
2018-Feb-18 23:01N 33°44' W 118°16'1 2.3
2018-Feb-18 22:30N 33°44' W 118°15'1 1.5
2018-Feb-18 22:00N 33°44' W 118°16'1 1.5
2018-Feb-18 21:30N 33°44' W 118°17'0 0.0
2018-Feb-18 21:00N 33°44' W 118°17'0 0.0
2018-Feb-18 20:31N 33°44' W 118°17'0 0.0
2018-Feb-18 19:59N 33°44' W 118°17'0 0.0
2018-Feb-18 19:30N 33°44' W 118°17'0 0.0
2018-Feb-18 19:00N 33°44' W 118°17'0 0.0
2018-Feb-18 18:30N 33°44' W 118°17'0 0.0
2018-Feb-18 18:00N 33°44' W 118°17'0 0.0
2018-Feb-18 17:30N 33°44' W 118°17'0 0.0
2018-Feb-18 17:00N 33°44' W 118°17'0 0.0
2018-Feb-18 16:30N 33°44' W 118°17'0 0.0
2018-Feb-18 16:00N 33°44' W 118°17'0 0.0
2018-Feb-18 15:31N 33°44' W 118°17'1 2.2
2018-Feb-18 15:00N 33°45' W 118°16'1 2.1
2018-Feb-18 14:30N 33°46' W 118°15'0 0.0
2018-Feb-18 14:00N 33°46' W 118°15'0 0.0
2018-Feb-18 13:31N 33°46' W 118°15'0 0.0
2018-Feb-18 13:00N 33°46' W 118°15'0 0.1
2018-Feb-18 12:30N 33°46' W 118°15'0 0.0
2018-Feb-18 12:01N 33°46' W 118°15'2 0.3
2018-Feb-18 04:04N 33°43' W 118°16'0 5.3
2018-Feb-18 04:00N 33°43' W 118°16'1 1.9
2018-Feb-18 03:31N 33°44' W 118°15'2 3.0
2018-Feb-18 02:59N 33°44' W 118°13'1 1.0
2018-Feb-18 01:58N 33°45' W 118°13'0 0.0
2018-Feb-18 01:30N 33°45' W 118°13'0 0.4
2018-Feb-18 01:00N 33°45' W 118°13'1 3.0
2018-Feb-18 00:31N 33°44' W 118°12'1 1.5
2018-Feb-18 00:00N 33°44' W 118°11'0 0.4
2018-Feb-17 23:30N 33°44' W 118°12'0 0.6
2018-Feb-17 23:00N 33°44' W 118°12'4 7.1
2018-Feb-17 22:31N 33°43' W 118°16'1 1.1
2018-Feb-17 21:59N 33°44' W 118°17'0 0.0
2018-Feb-17 21:30N 33°44' W 118°17'0 0.0
2018-Feb-17 21:00N 33°44' W 118°17'3 5.6
2018-Feb-17 20:30N 33°44' W 118°13'1 1.4
2018-Feb-17 20:00N 33°45' W 118°13'0 0.0
2018-Feb-17 19:30N 33°45' W 118°13'0 0.0
2018-Feb-17 19:00N 33°45' W 118°13'0 0.0
2018-Feb-17 18:31N 33°45' W 118°13'0 0.0
2018-Feb-17 18:00N 33°45' W 118°13'0 0.0
2018-Feb-17 17:31N 33°45' W 118°13'0 0.0
2018-Feb-17 17:00N 33°45' W 118°13'0 0.0
2018-Feb-17 16:31N 33°45' W 118°13'0 0.0
2018-Feb-17 16:01N 33°45' W 118°13'0 0.0
2018-Feb-17 15:30N 33°45' W 118°13'0 0.0
2018-Feb-17 15:00N 33°45' W 118°13'0 0.0
2018-Feb-17 14:30N 33°45' W 118°13'0 0.0
2018-Feb-17 13:56N 33°45' W 118°13'0 0.0
2018-Feb-17 13:31N 33°45' W 118°13'0 0.4
2018-Feb-17 12:59N 33°45' W 118°13'1 2.7
2018-Feb-17 12:30N 33°46' W 118°14'0 0.0
2018-Feb-17 12:00N 33°46' W 118°14'1 1.3
2018-Feb-17 11:30N 33°46' W 118°13'1 1.6
2018-Feb-17 10:58N 33°46' W 118°14'0 0.9
2018-Feb-17 10:30N 33°46' W 118°13'4 6.1
2018-Feb-17 09:55N 33°43' W 118°15'1 0.2
2018-Feb-17 01:50N 33°44' W 118°17'0 0.0
2018-Feb-17 01:30N 33°44' W 118°17'0 0.0
2018-Feb-17 01:00N 33°44' W 118°17'0 0.0
2018-Feb-17 00:30N 33°44' W 118°17'0 0.0
2018-Feb-17 00:00N 33°44' W 118°17'0 0.0
2018-Feb-16 23:31N 33°44' W 118°17'0 0.0
2018-Feb-16 23:00N 33°44' W 118°17'0 0.0
2018-Feb-16 22:30N 33°44' W 118°17'0 0.0
2018-Feb-16 22:00N 33°44' W 118°17'0 0.0
2018-Feb-16 21:30N 33°44' W 118°17'0 0.0
2018-Feb-16 21:00N 33°44' W 118°17'4 7.7
2018-Feb-16 20:30N 33°44' W 118°12'1 1.1
2018-Feb-16 20:01N 33°44' W 118°12'1 1.2
2018-Feb-16 19:28N 33°44' W 118°11'1 1.9
2018-Feb-16 19:00N 33°44' W 118°11'3 5.3
2018-Feb-16 18:30N 33°43' W 118°15'2 3.7
2018-Feb-16 18:00N 33°44' W 118°17'0 0.0
2018-Feb-16 17:30N 33°44' W 118°17'0 0.0
2018-Feb-16 17:00N 33°44' W 118°17'0 0.0
2018-Feb-16 16:30N 33°44' W 118°17'0 0.0
2018-Feb-16 16:00N 33°44' W 118°17'0 0.0
2018-Feb-16 15:30N 33°44' W 118°17'0 0.0
2018-Feb-16 15:00N 33°44' W 118°17'0 0.0
2018-Feb-16 13:35N 33°44' W 118°17'0 0.0
2018-Feb-16 05:23N 33°44' W 118°17'0 0.0
2018-Feb-16 04:48N 33°44' W 118°17'0 0.0
2018-Feb-16 04:28N 33°44' W 118°17'0 0.0
2018-Feb-16 04:00N 33°44' W 118°17'2 4.1
2018-Feb-16 03:30N 33°43' W 118°14'2 3.2
2018-Feb-16 02:49N 33°45' W 118°13'0 0.5
2018-Feb-16 02:30N 33°45' W 118°12'3 6.9
2018-Feb-16 02:01N 33°43' W 118°16'1 1.3
2018-Feb-16 01:30N 33°44' W 118°17'0 0.0
2018-Feb-16 01:00N 33°44' W 118°17'0 0.0
2018-Feb-16 00:31N 33°44' W 118°17'0 0.0
2018-Feb-16 00:00N 33°44' W 118°17'0 0.0
2018-Feb-15 23:30N 33°44' W 118°17'0 0.0
2018-Feb-15 23:00N 33°44' W 118°17'0 0.0
2018-Feb-15 22:30N 33°44' W 118°17'0 0.0
2018-Feb-15 22:01N 33°44' W 118°17'0 0.2
2018-Feb-15 21:30N 33°44' W 118°17'3 5.6
2018-Feb-15 21:00N 33°44' W 118°13'1 1.0
2018-Feb-15 20:30N 33°44' W 118°14'1 2.5
2018-Feb-15 20:00N 33°45' W 118°13'0 0.0
2018-Feb-15 19:30N 33°45' W 118°13'1 1.1
2018-Feb-15 19:01N 33°45' W 118°12'0 0.5
2018-Feb-15 18:31N 33°45' W 118°13'1 2.9
2018-Feb-15 18:00N 33°43' W 118°13'3 6.5
2018-Feb-15 17:30N 33°44' W 118°17'0 0.0
2018-Feb-15 17:00N 33°44' W 118°17'0 0.0
2018-Feb-15 16:30N 33°44' W 118°17'0 0.0
2018-Feb-15 16:00N 33°44' W 118°17'0 0.0
2018-Feb-15 15:31N 33°44' W 118°17'0 0.0
2018-Feb-15 15:00N 33°44' W 118°17'0 0.0
2018-Feb-15 14:30N 33°44' W 118°17'0 0.0
2018-Feb-15 13:04N 33°44' W 118°17'0 3.8
2018-Feb-15 12:57N 33°43' W 118°16'3 7.4
2018-Feb-15 12:31N 33°44' W 118°12'0 0.5
2018-Feb-15 12:00N 33°44' W 118°12'0 0.8
2018-Feb-15 11:30N 33°44' W 118°12'1 2.5
2018-Feb-15 11:00N 33°44' W 118°11'3 6.7
2018-Feb-15 10:30N 33°43' W 118°15'2 2.8
2018-Feb-15 09:52N 33°44' W 118°17'0 0.0
2018-Feb-15 09:30N 33°44' W 118°17'0 0.0
2018-Feb-15 08:59N 33°44' W 118°17'0 0.0
2018-Feb-15 08:28N 33°44' W 118°17'0 0.0
2018-Feb-15 07:57N 33°44' W 118°17'0 0.0
2018-Feb-15 07:24N 33°44' W 118°17'0 0.0
2018-Feb-15 06:54N 33°44' W 118°17'0 0.0
2018-Feb-15 06:30N 33°44' W 118°17'0 0.0
2018-Feb-15 06:00N 33°44' W 118°17'0 0.0
2018-Feb-15 05:15N 33°44' W 118°17'0 0.0
2018-Feb-15 04:53N 33°44' W 118°17'0 0.0
2018-Feb-15 04:30N 33°44' W 118°17'0 0.0
2018-Feb-15 03:59N 33°44' W 118°17'0 0.0
2018-Feb-15 03:28N 33°44' W 118°17'0 0.0
2018-Feb-15 02:59N 33°44' W 118°17'0 0.7
2018-Feb-15 02:28N 33°43' W 118°17'0 0.6
2018-Feb-15 01:53N 33°43' W 118°16'1 1.7
2018-Feb-15 01:30N 33°44' W 118°17'0 0.0
2018-Feb-15 01:00N 33°44' W 118°17'0 0.0
2018-Feb-15 00:31N 33°44' W 118°17'1 2.6
2018-Feb-15 00:00N 33°43' W 118°15'3 6.6
2018-Feb-14 23:30N 33°45' W 118°12'0 0.6
2018-Feb-14 23:00N 33°44' W 118°12'1 2.8
2018-Feb-14 22:31N 33°44' W 118°11'3 6.1
2018-Feb-14 22:00N 33°43' W 118°15'2 3.6
2018-Feb-14 21:28N 33°44' W 118°17'0 0.0
2018-Feb-14 21:00N 33°44' W 118°17'0 0.0
2018-Feb-14 20:30N 33°44' W 118°17'0 0.0
2018-Feb-14 19:58N 33°44' W 118°17'0 0.0
2018-Feb-14 19:30N 33°44' W 118°17'0 0.0
2018-Feb-14 18:59N 33°44' W 118°17'0 0.0
2018-Feb-14 18:30N 33°44' W 118°17'0 0.0
2018-Feb-14 18:00N 33°44' W 118°17'0 0.0
2018-Feb-14 17:30N 33°44' W 118°17'0 0.0
2018-Feb-14 17:00N 33°44' W 118°17'0 0.0
2018-Feb-14 16:30N 33°44' W 118°17'0 0.0
2018-Feb-14 16:00N 33°44' W 118°17'0 0.0
2018-Feb-14 15:31N 33°44' W 118°17'1 2.2
2018-Feb-14 15:00N 33°45' W 118°16'2 4.8
2018-Feb-14 14:30N 33°46' W 118°14'0 0.6
2018-Feb-14 14:01N 33°46' W 118°13'2 2.7
2018-Feb-14 13:17N 33°44' W 118°13'2 4.8
2018-Feb-14 12:57N 33°44' W 118°11'3 5.7
2018-Feb-14 12:30N 33°43' W 118°14'2 0.3
2018-Feb-14 04:04N 33°44' W 118°17'0 0.0
2018-Feb-14 03:41N 33°44' W 118°17'0 0.0
2018-Feb-14 03:20N 33°44' W 118°17'0 0.0
2018-Feb-14 02:56N 33°44' W 118°17'0 0.0
2018-Feb-14 02:02N 33°44' W 118°17'0 0.1
2018-Feb-14 01:56N 33°44' W 118°17'3 5.9
2018-Feb-14 01:30N 33°43' W 118°14'3 5.7
2018-Feb-14 01:00N 33°46' W 118°13'0 0.4
2018-Feb-14 00:31N 33°46' W 118°13'0 0.0
2018-Feb-14 00:00N 33°46' W 118°13'2 3.9
2018-Feb-13 23:30N 33°46' W 118°15'0 0.7
2018-Feb-13 23:00N 33°46' W 118°16'2 3.7
2018-Feb-13 22:30N 33°44' W 118°16'2 3.2
2018-Feb-13 22:00N 33°43' W 118°15'1 2.1
2018-Feb-13 21:31N 33°43' W 118°16'1 1.2
2018-Feb-13 21:00N 33°44' W 118°17'0 0.0
2018-Feb-13 20:31N 33°44' W 118°17'0 0.0
2018-Feb-13 20:00N 33°44' W 118°17'0 0.0
2018-Feb-13 19:31N 33°44' W 118°17'0 0.0
2018-Feb-13 19:00N 33°44' W 118°17'0 0.0
2018-Feb-13 18:31N 33°44' W 118°17'0 0.0
2018-Feb-13 18:01N 33°44' W 118°17'0 0.0
2018-Feb-13 17:30N 33°44' W 118°17'0 0.0
2018-Feb-13 17:00N 33°44' W 118°17'0 0.0
2018-Feb-13 16:31N 33°44' W 118°17'0 0.0
2018-Feb-13 16:00N 33°44' W 118°17'0 0.0
2018-Feb-13 15:27N 33°44' W 118°17'0 0.0
2018-Feb-13 15:00N 33°44' W 118°17'3 4.6
2018-Feb-13 14:26N 33°44' W 118°13'2 3.9
2018-Feb-13 14:00N 33°45' W 118°13'0 0.8
2018-Feb-13 13:30N 33°46' W 118°13'0 0.1
2018-Feb-13 13:00N 33°46' W 118°13'1 2.0
2018-Feb-13 12:27N 33°44' W 118°13'3 6.6
2018-Feb-13 12:01N 33°43' W 118°16'0 0.1
2018-Feb-13 06:28N 33°44' W 118°17'0 0.0
2018-Feb-13 01:43N 33°44' W 118°17'0 0.0
2018-Feb-13 01:30N 33°44' W 118°17'0 0.0
2018-Feb-13 01:01N 33°44' W 118°17'0 0.0
2018-Feb-13 00:29N 33°44' W 118°17'0 0.0
2018-Feb-13 00:00N 33°44' W 118°17'2 4.0
2018-Feb-12 23:31N 33°46' W 118°16'0 0.2
2018-Feb-12 23:00N 33°46' W 118°16'1 2.9
2018-Feb-12 22:30N 33°44' W 118°17'2 4.5
2018-Feb-12 22:00N 33°43' W 118°15'2 3.1
2018-Feb-12 21:30N 33°44' W 118°16'0 0.6
2018-Feb-12 21:00N 33°44' W 118°17'0 0.0
2018-Feb-12 20:30N 33°44' W 118°17'0 0.0
2018-Feb-12 20:00N 33°44' W 118°17'0 0.2
2018-Feb-12 19:30N 33°44' W 118°16'0 0.0
2018-Feb-12 19:01N 33°44' W 118°16'0 0.2
2018-Feb-12 18:30N 33°44' W 118°17'0 0.0
2018-Feb-12 18:00N 33°44' W 118°17'0 0.0
2018-Feb-12 17:30N 33°44' W 118°17'0 0.0
2018-Feb-12 17:00N 33°44' W 118°17'0 0.0
2018-Feb-12 16:30N 33°44' W 118°17'0 0.0
2018-Feb-12 16:00N 33°44' W 118°17'0 0.0
2018-Feb-12 15:30N 33°44' W 118°17'0 0.0
2018-Feb-12 14:58N 33°44' W 118°17'0 0.0
2018-Feb-12 14:30N 33°44' W 118°17'0 0.0
2018-Feb-12 13:59N 33°44' W 118°17'0 0.0
2018-Feb-12 13:17N 33°44' W 118°17'0 0.0
2018-Feb-12 12:58N 33°44' W 118°17'0 0.0
2018-Feb-12 08:22N 33°44' W 118°17'0 0.0
2018-Feb-12 05:48N 33°44' W 118°17'0 0.0
2018-Feb-12 05:29N 33°44' W 118°17'0 0.0
2018-Feb-12 05:00N 33°44' W 118°17'0 0.0
2018-Feb-12 04:30N 33°44' W 118°17'0 0.0
2018-Feb-12 02:04N 33°44' W 118°17'0 0.0
2018-Feb-12 01:56N 33°44' W 118°17'0 0.0
2018-Feb-12 01:30N 33°44' W 118°17'0 0.0
2018-Feb-12 01:00N 33°44' W 118°17'0 0.0
2018-Feb-12 00:30N 33°44' W 118°17'0 0.0
2018-Feb-12 00:00N 33°44' W 118°17'0 0.0
2018-Feb-11 23:30N 33°44' W 118°17'0 0.0
2018-Feb-11 23:00N 33°44' W 118°17'1 2.3
2018-Feb-11 22:30N 33°44' W 118°15'1 2.6
2018-Feb-11 22:01N 33°43' W 118°15'1 2.6
2018-Feb-11 21:30N 33°44' W 118°16'0 0.7
2018-Feb-11 21:00N 33°44' W 118°17'0 0.0
2018-Feb-11 20:30N 33°44' W 118°17'0 0.0
2018-Feb-11 20:00N 33°44' W 118°17'0 0.0
2018-Feb-11 19:30N 33°44' W 118°17'0 0.0
2018-Feb-11 19:00N 33°44' W 118°17'0 0.0
2018-Feb-11 18:30N 33°44' W 118°17'0 0.0
2018-Feb-11 18:00N 33°44' W 118°17'0 0.0
2018-Feb-11 17:30N 33°44' W 118°17'0 0.0
2018-Feb-11 17:00N 33°44' W 118°17'0 0.0
2018-Feb-11 16:30N 33°44' W 118°17'0 0.0
2018-Feb-11 16:00N 33°44' W 118°17'0 0.0
2018-Feb-11 15:30N 33°44' W 118°17'1 1.1
2018-Feb-11 15:00N 33°43' W 118°16'2 3.6
2018-Feb-11 14:30N 33°45' W 118°16'0 0.4
2018-Feb-11 14:00N 33°45' W 118°16'0 1.0
2018-Feb-11 13:30N 33°45' W 118°16'0 0.1
2018-Feb-11 13:00N 33°45' W 118°16'2 5.0
2018-Feb-11 12:30N 33°43' W 118°15'2 3.1
2018-Feb-11 12:00N 33°43' W 118°16'0 0.8
2018-Feb-11 11:30N 33°44' W 118°17'0 0.0
2018-Feb-11 02:57N 33°44' W 118°17'0 0.0
2018-Feb-11 02:29N 33°44' W 118°17'3 5.5
2018-Feb-11 02:00N 33°44' W 118°13'2 4.0
2018-Feb-11 01:30N 33°46' W 118°13'0 0.9
2018-Feb-11 01:00N 33°46' W 118°14'1 1.6
2018-Feb-11 00:30N 33°46' W 118°13'3 6.6
2018-Feb-11 00:00N 33°43' W 118°15'2 3.1
2018-Feb-10 23:30N 33°44' W 118°17'0 0.0
2018-Feb-10 23:00N 33°44' W 118°17'0 0.0
2018-Feb-10 22:29N 33°44' W 118°17'0 0.0
2018-Feb-10 22:00N 33°44' W 118°17'0 0.0
2018-Feb-10 21:30N 33°44' W 118°17'0 0.0
2018-Feb-10 21:00N 33°44' W 118°17'0 0.0
2018-Feb-10 20:30N 33°44' W 118°17'0 0.0
2018-Feb-10 20:00N 33°44' W 118°17'0 0.0
2018-Feb-10 19:30N 33°44' W 118°17'0 0.0
2018-Feb-10 19:00N 33°44' W 118°17'0 0.0
2018-Feb-10 18:30N 33°44' W 118°17'0 0.0
2018-Feb-10 18:00N 33°44' W 118°17'0 0.0
2018-Feb-10 17:30N 33°44' W 118°17'0 0.0
2018-Feb-10 17:00N 33°44' W 118°17'0 0.0
2018-Feb-10 16:30N 33°44' W 118°17'0 0.0
2018-Feb-10 16:00N 33°44' W 118°17'0 0.0
2018-Feb-10 15:30N 33°44' W 118°17'0 0.0
2018-Feb-10 15:00N 33°44' W 118°17'0 0.0
2018-Feb-10 14:15N 33°44' W 118°17'0 0.0
2018-Feb-10 13:57N 33°44' W 118°17'0 0.2
2018-Feb-10 13:17N 33°44' W 118°16'1 4.3
2018-Feb-10 13:00N 33°45' W 118°16'1 1.3
2018-Feb-10 12:30N 33°46' W 118°17'1 1.7
2018-Feb-10 12:00N 33°45' W 118°16'1 1.2
2018-Feb-10 11:14N 33°44' W 118°17'0 0.0
2018-Feb-10 10:58N 33°44' W 118°17'0 0.0
2018-Feb-10 03:10N 33°44' W 118°17'0 0.0
2018-Feb-10 02:55N 33°44' W 118°17'0 0.0
2018-Feb-10 02:11N 33°44' W 118°17'0 0.0
2018-Feb-10 02:00N 33°44' W 118°17'0 0.0
2018-Feb-10 01:30N 33°44' W 118°17'0 0.0
2018-Feb-10 01:00N 33°44' W 118°17'1 2.0
2018-Feb-10 00:30N 33°45' W 118°16'0 1.0
2018-Feb-10 00:00N 33°45' W 118°16'1 1.1
2018-Feb-09 23:30N 33°46' W 118°16'0 0.2
2018-Feb-09 23:00N 33°46' W 118°16'0 0.2
2018-Feb-09 22:46N 33°46' W 118°16'1 3.6
2018-Feb-09 22:31N 33°45' W 118°16'1 1.2
2018-Feb-09 21:30N 33°44' W 118°17'0 0.0
2018-Feb-09 20:00N 33°44' W 118°17'0 0.0
2018-Feb-09 18:00N 33°44' W 118°17'0 0.0
2018-Feb-09 17:30N 33°44' W 118°17'1 0.2
2018-Feb-09 12:31N 33°44' W 118°15'  

Dump ship's entire track history